MPDA/DAV METAR and TAF weather

Enter ICAO airport designator
Station Type Date Time Source
MPDA METAR 2019/10/23 13:00 UTC NOAA

MPDA 231300Z 02003KT 9999 FEW018 24/23 Q1010


Station Type Date Time Source
MPDA Decoded METAR 2019/10/23 13:00 UTC NOAA

David, Panama (MPDA) 08-24N 082-25W 26M
Oct 23, 2019 - 09:00 AM EDT / 2019.10.23 1300 UTC
Wind: from the NNE (020 degrees) at 3 MPH (3 KT):0
Visibility: greater than 7 mile(s):0
Sky conditions: mostly clear
Temperature: 75 F (24 C)
Dew Point: 73 F (23 C)
Relative Humidity: 94%
Pressure (altimeter): 29.83 in. Hg (1010 hPa)
ob: MPDA 231300Z 02003KT 9999 FEW018 24/23 Q1010
cycle: 13

Station Type Date Time Source
MPDA TAF 2019/10/23 12:21 UTC NOAA

TAF TAF MPDA 231100Z 2312/2324 00000KT 9999 SCT018 SCT090
BECMG 2319/2323 19005KT 6000 TSRA SCT016CB BKN090

Example: see airport list